createdAt,value
2017-10-27T00:02:09.410Z,66.00
2017-10-27T00:04:37.378Z,63.00
2017-10-27T00:07:04.977Z,62.87
2017-10-27T00:09:32.683Z,61.57
2017-10-27T00:12:00.263Z,53.70
2017-10-27T00:14:27.827Z,58.83
2017-10-27T00:16:55.426Z,56.77
2017-10-27T00:19:22.965Z,63.37
2017-10-27T00:21:50.501Z,62.47
2017-10-27T00:24:18.117Z,69.50
2017-10-27T00:26:45.672Z,63.97
2017-10-27T00:29:13.322Z,68.93
2017-10-27T00:31:40.898Z,66.05
2017-10-27T00:34:08.442Z,64.50
2017-10-27T00:36:35.975Z,70.80
2017-10-27T00:39:03.659Z,72.23
2017-10-27T00:41:31.320Z,69.67
2017-10-27T00:43:59.126Z,67.30
2017-10-27T00:46:26.726Z,57.90
2017-10-27T00:48:55.123Z,60.43
2017-10-27T00:51:22.869Z,63.42
2017-10-27T00:53:50.479Z,67.22
2017-10-27T00:56:18.076Z,64.63
2017-10-27T00:58:48.448Z,73.50
2017-10-27T01:01:16.198Z,67.40
2017-10-27T01:03:46.639Z,57.55
2017-10-27T01:06:18.319Z,62.20
2017-10-27T01:08:48.706Z,58.15
2017-10-27T01:11:18.578Z,58.03
2017-10-27T01:13:54.053Z,64.55
2017-10-27T01:16:22.985Z,65.07
2017-10-27T01:18:59.538Z,66.03
2017-10-27T01:21:29.983Z,63.43
2017-10-27T01:24:00.353Z,62.00
2017-10-27T01:26:30.550Z,66.43
2017-10-27T01:28:59.699Z,64.10
2017-10-27T01:31:32.126Z,76.62
2017-10-27T01:33:59.835Z,64.90
2017-10-27T01:36:27.455Z,64.12
2017-10-27T01:38:57.687Z,63.00
2017-10-27T01:41:25.822Z,62.65
2017-10-27T01:43:53.975Z,63.23
2017-10-27T01:46:28.677Z,57.05
2017-10-27T01:48:59.075Z,70.22
2017-10-27T01:51:28.614Z,58.40
2017-10-27T01:53:59.314Z,61.90
2017-10-27T01:56:27.787Z,63.80
2017-10-27T01:58:57.894Z,65.40
2017-10-27T02:01:27.269Z,55.27
2017-10-27T02:03:56.804Z,67.62
2017-10-27T02:06:26.104Z,65.03
2017-10-27T02:08:58.296Z,62.30
2017-10-27T02:11:28.688Z,61.90
2017-10-27T02:13:56.668Z,67.90
2017-10-27T02:16:24.229Z,70.80
2017-10-27T02:18:51.850Z,74.20
2017-10-27T02:21:19.454Z,63.05
2017-10-27T02:23:47.082Z,63.10
2017-10-27T02:26:14.904Z,53.35
2017-10-27T02:28:42.442Z,57.92
2017-10-27T02:31:16.981Z,55.00
2017-10-27T02:33:46.119Z,55.70
2017-10-27T02:36:14.637Z,57.73
2017-10-27T02:38:44.109Z,60.10
2017-10-27T02:41:15.328Z,51.78
2017-10-27T02:43:45.352Z,57.83
2017-10-27T02:46:15.257Z,51.70
2017-10-27T02:48:47.369Z,58.90
2017-10-27T02:51:21.396Z,54.53
2017-10-27T02:53:52.046Z,60.28
2017-10-27T02:56:23.150Z,49.97
2017-10-27T02:58:54.420Z,48.67
2017-10-27T03:01:23.801Z,51.08
2017-10-27T03:03:53.523Z,47.72
2017-10-27T03:06:22.834Z,49.53
2017-10-27T03:08:54.927Z,50.08
2017-10-27T03:11:27.254Z,46.08
2017-10-27T03:13:55.730Z,43.08
2017-10-27T03:16:25.652Z,38.55
2017-10-27T03:18:58.329Z,40.25
2017-10-27T03:21:29.482Z,46.03
2017-10-27T03:24:00.316Z,38.90
2017-10-27T03:26:32.842Z,40.45
2017-10-27T03:29:01.642Z,39.85
2017-10-27T03:31:31.135Z,35.35
2017-10-27T03:34:01.220Z,40.60
2017-10-27T03:36:32.540Z,36.15
2017-10-27T03:39:04.151Z,42.30
2017-10-27T03:41:34.418Z,48.90
2017-10-27T03:44:06.143Z,53.33
2017-10-27T03:46:36.846Z,42.42
2017-10-27T03:49:08.848Z,41.92
2017-10-27T03:51:41.614Z,42.70
2017-10-27T03:54:12.830Z,51.85
2017-10-27T03:56:41.512Z,52.33
2017-10-27T03:59:13.621Z,45.28
2017-10-27T04:01:42.645Z,47.20
2017-10-27T04:04:11.586Z,47.00
2017-10-27T04:06:43.845Z,59.13
2017-10-27T04:09:14.323Z,36.30
2017-10-27T04:11:45.202Z,54.40
2017-10-27T04:14:14.115Z,47.42
2017-10-27T04:16:45.301Z,49.67
2017-10-27T04:19:13.117Z,44.60
2017-10-27T04:21:40.821Z,38.03
2017-10-27T04:24:08.463Z,62.03
2017-10-27T04:26:36.293Z,74.13
2017-10-27T04:29:03.943Z,80.50
2017-10-27T04:31:31.552Z,63.08
2017-10-27T04:33:59.086Z,48.67
2017-10-27T04:36:26.935Z,54.33
2017-10-27T04:38:54.533Z,53.73
2017-10-27T04:41:22.343Z,51.95
2017-10-27T04:43:49.936Z,53.60
2017-10-27T04:46:17.636Z,45.50
2017-10-27T04:48:45.422Z,54.65
2017-10-27T04:51:12.941Z,52.78
2017-10-27T04:53:40.835Z,62.38
2017-10-27T04:56:08.370Z,58.97
2017-10-27T04:58:35.966Z,69.97
2017-10-27T05:01:03.943Z,65.78
2017-10-27T05:03:32.335Z,55.42
2017-10-27T05:05:59.858Z,49.55
2017-10-27T05:08:27.583Z,56.60
2017-10-27T05:10:55.131Z,40.63
2017-10-27T05:13:22.983Z,41.80
2017-10-27T05:15:50.616Z,42.88
2017-10-27T05:18:23.718Z,34.55
2017-10-27T05:20:56.924Z,46.20
2017-10-27T05:23:29.951Z,33.90
2017-10-27T05:25:57.578Z,45.43
2017-10-27T05:28:25.163Z,41.93
2017-10-27T05:30:52.754Z,43.63
2017-10-27T05:33:20.336Z,48.00
2017-10-27T05:35:47.894Z,49.90
2017-10-27T05:38:15.479Z,50.83
2017-10-27T05:40:43.012Z,55.33
2017-10-27T05:43:10.848Z,43.80
2017-10-27T05:45:38.475Z,43.70
2017-10-27T05:48:06.231Z,39.87
2017-10-27T05:50:33.800Z,37.63
2017-10-27T05:53:01.398Z,50.83
2017-10-27T05:55:29.001Z,50.67
2017-10-27T05:57:56.878Z,47.43
2017-10-27T06:00:25.399Z,50.23
2017-10-27T06:02:53.852Z,44.80
2017-10-27T06:05:21.382Z,80.63
2017-10-27T06:07:48.965Z,58.10
2017-10-27T06:10:16.517Z,52.63
2017-10-27T06:12:44.332Z,65.47
2017-10-27T06:15:11.990Z,53.70
2017-10-27T06:17:39.763Z,55.53
2017-10-27T06:20:07.419Z,50.50
2017-10-27T06:22:35.233Z,66.63
2017-10-27T06:25:03.023Z,66.83
2017-10-27T06:27:30.581Z,65.90
2017-10-27T06:29:58.223Z,64.17
2017-10-27T06:32:25.978Z,76.47
2017-10-27T06:34:53.496Z,63.93
2017-10-27T06:37:22.430Z,67.67
2017-10-27T06:39:50.155Z,80.13
2017-10-27T06:42:17.730Z,74.67
2017-10-27T06:44:45.604Z,63.03
2017-10-27T06:47:13.245Z,67.07
2017-10-27T06:49:41.107Z,83.10
2017-10-27T06:52:08.719Z,83.43
2017-10-27T06:54:36.415Z,69.20
2017-10-27T06:57:03.964Z,78.10
2017-10-27T06:59:31.535Z,72.57
2017-10-27T07:01:59.154Z,65.00
2017-10-27T07:04:26.757Z,68.67
2017-10-27T07:06:54.374Z,71.30
2017-10-27T07:09:22.014Z,65.10
2017-10-27T07:11:49.587Z,72.27
2017-10-27T07:14:32.971Z,58.33
2017-10-27T07:17:00.560Z,60.70
2017-10-27T07:19:28.163Z,51.57
2017-10-27T07:21:55.797Z,53.70
2017-10-27T07:24:23.363Z,55.27
2017-10-27T07:26:50.951Z,58.40
2017-10-27T07:29:18.581Z,59.60
2017-10-27T07:31:46.246Z,59.40
2017-10-27T07:34:13.843Z,63.60
2017-10-27T07:36:41.471Z,54.47
2017-10-27T07:39:09.091Z,48.13
2017-10-27T07:41:36.643Z,47.43
2017-10-27T07:44:04.229Z,44.90
2017-10-27T07:46:31.918Z,44.53
2017-10-27T07:48:59.542Z,38.03
2017-10-27T07:51:27.361Z,35.30
2017-10-27T07:53:55.010Z,40.30
2017-10-27T07:56:22.574Z,44.20
2017-10-27T07:58:50.374Z,48.53
2017-10-27T08:01:17.979Z,43.97
2017-10-27T08:03:45.590Z,48.00
2017-10-27T08:06:13.484Z,40.30
2017-10-27T08:08:41.113Z,38.10
2017-10-27T08:11:08.897Z,38.17
2017-10-27T08:13:36.551Z,38.97
2017-10-27T08:16:04.227Z,38.33
2017-10-27T08:18:31.820Z,36.93
2017-10-27T08:20:59.606Z,36.43
2017-10-27T08:23:27.231Z,47.30
2017-10-27T08:25:55.010Z,35.37
2017-10-27T08:28:22.596Z,39.87
2017-10-27T08:30:50.231Z,36.07
2017-10-27T08:33:17.801Z,36.83
2017-10-27T08:35:45.449Z,36.90
2017-10-27T08:38:13.097Z,34.43
2017-10-27T08:40:40.672Z,31.80
2017-10-27T08:43:08.314Z,32.93
2017-10-27T08:45:35.913Z,38.00
2017-10-27T08:48:03.570Z,35.70
2017-10-27T08:50:31.339Z,33.13
2017-10-27T08:52:58.931Z,41.30
2017-10-27T08:55:26.649Z,33.57
2017-10-27T08:57:54.431Z,35.23
2017-10-27T09:00:22.052Z,37.10
2017-10-27T09:02:50.041Z,39.43
2017-10-27T09:08:58.503Z,31.77
2017-10-27T09:11:27.676Z,30.10
2017-10-27T09:13:55.626Z,26.60
2017-10-27T09:16:23.539Z,25.13
2017-10-27T09:18:51.443Z,30.67
2017-10-27T09:21:19.912Z,29.80
2017-10-27T09:23:48.383Z,39.20
2017-10-27T09:26:17.111Z,27.93
2017-10-27T09:28:44.921Z,31.10
2017-10-27T09:31:13.478Z,28.83
2017-10-27T09:33:41.123Z,28.10
2017-10-27T09:36:08.729Z,23.43
2017-10-27T09:38:36.701Z,24.17
2017-10-27T09:41:05.204Z,21.70
2017-10-27T09:43:33.896Z,20.20
2017-10-27T09:46:01.547Z,23.40
2017-10-27T09:48:29.551Z,31.83
2017-10-27T09:50:57.747Z,20.77
2017-10-27T09:53:26.328Z,21.00
2017-10-27T09:55:55.010Z,20.43
2017-10-27T09:58:22.617Z,19.60
2017-10-27T10:00:50.254Z,19.70
2017-10-27T10:03:18.108Z,26.10
2017-10-27T10:05:45.732Z,19.30
2017-10-27T10:08:13.395Z,24.47
2017-10-27T10:10:41.363Z,21.10
2017-10-27T10:13:09.227Z,18.70
2017-10-27T10:15:36.831Z,26.23
2017-10-27T10:18:04.642Z,16.80
2017-10-27T10:20:32.186Z,15.80
2017-10-27T10:22:59.809Z,25.17
2017-10-27T10:25:27.467Z,20.43
2017-10-27T10:27:55.796Z,27.37
2017-10-27T10:30:23.699Z,21.60
2017-10-27T10:32:51.328Z,19.70
2017-10-27T10:35:19.539Z,20.93
2017-10-27T10:37:47.252Z,27.47
2017-10-27T10:40:15.074Z,21.90
2017-10-27T10:42:42.853Z,18.70
2017-10-27T10:45:12.027Z,20.93
2017-10-27T10:47:39.859Z,24.50
2017-10-27T10:50:08.077Z,19.70
2017-10-27T10:52:35.851Z,19.03
2017-10-27T10:55:03.394Z,21.17
2017-10-27T10:57:30.980Z,19.10
2017-10-27T10:59:58.628Z,24.57
2017-10-27T11:02:26.219Z,30.53
2017-10-27T11:04:54.028Z,24.87
2017-10-27T11:07:22.542Z,29.37
2017-10-27T11:09:50.623Z,21.87
2017-10-27T11:12:19.919Z,22.73
2017-10-27T11:14:49.074Z,24.57
2017-10-27T11:17:16.779Z,25.87
2017-10-27T11:19:44.572Z,21.10
2017-10-27T11:22:13.135Z,21.17
2017-10-27T11:24:40.824Z,29.60
2017-10-27T11:27:10.443Z,27.43
2017-10-27T11:29:38.362Z,28.10
2017-10-27T11:32:06.051Z,22.30
2017-10-27T11:34:33.651Z,24.30
2017-10-27T11:37:02.499Z,27.20
2017-10-27T11:39:30.143Z,24.50
2017-10-27T11:41:57.724Z,23.17
2017-10-27T11:44:25.322Z,27.33
2017-10-27T11:46:52.998Z,20.43
2017-10-27T11:49:21.094Z,22.63
2017-10-27T11:51:48.710Z,20.10
2017-10-27T11:54:16.442Z,19.07
2017-10-27T11:56:45.134Z,19.53
2017-10-27T11:59:13.746Z,17.47
2017-10-27T12:01:41.403Z,20.27
2017-10-27T12:04:09.499Z,16.13
2017-10-27T12:06:38.715Z,16.43
2017-10-27T12:09:06.437Z,21.40
2017-10-27T12:11:34.250Z,15.53
2017-10-27T12:14:02.096Z,17.70
2017-10-27T12:16:29.787Z,17.80
2017-10-27T12:18:57.441Z,19.80
2017-10-27T12:21:25.269Z,19.87
2017-10-27T12:23:54.942Z,16.07
2017-10-27T12:26:22.706Z,17.77
2017-10-27T12:28:50.341Z,16.73
2017-10-27T12:31:18.934Z,19.83
2017-10-27T12:33:46.591Z,15.80
2017-10-27T12:36:14.425Z,15.33
2017-10-27T12:38:42.540Z,26.87
2017-10-27T12:41:10.368Z,19.00
2017-10-27T12:43:38.156Z,16.60
2017-10-27T12:46:05.775Z,15.20
2017-10-27T12:48:33.956Z,18.47
2017-10-27T12:51:02.314Z,14.40
2017-10-27T12:53:30.569Z,18.70
2017-10-27T12:55:58.312Z,16.33
2017-10-27T12:58:26.898Z,19.57
2017-10-27T13:00:55.111Z,15.63
2017-10-27T13:03:22.775Z,15.87
2017-10-27T13:05:50.531Z,14.47
2017-10-27T13:08:19.207Z,13.83
2017-10-27T13:10:48.203Z,22.30
2017-10-27T13:13:16.008Z,23.03
2017-10-27T13:15:45.371Z,18.40
2017-10-27T13:18:13.846Z,17.67
2017-10-27T13:20:41.617Z,13.63
2017-10-27T13:23:09.240Z,23.03
2017-10-27T13:25:37.191Z,20.33
2017-10-27T13:28:04.727Z,15.90
2017-10-27T13:30:33.341Z,22.57
2017-10-27T13:33:01.966Z,13.43
2017-10-27T13:35:30.923Z,13.93
2017-10-27T13:37:58.525Z,10.47
2017-10-27T13:40:26.454Z,13.70
2017-10-27T13:42:54.009Z,13.90
2017-10-27T13:45:22.436Z,17.07
2017-10-27T13:47:50.458Z,12.70
2017-10-27T13:50:18.259Z,13.33
2017-10-27T13:52:46.750Z,9.20
2017-10-27T13:55:14.524Z,11.83
2017-10-27T13:57:42.369Z,12.97
2017-10-27T14:00:11.405Z,14.40
2017-10-27T14:02:39.486Z,14.10
2017-10-27T14:05:07.296Z,9.23
2017-10-27T14:07:35.964Z,8.50
2017-10-27T14:10:03.517Z,10.13
2017-10-27T14:12:31.829Z,8.30
2017-10-27T14:14:59.405Z,11.90
2017-10-27T14:17:26.938Z,16.27
2017-10-27T14:19:54.450Z,12.80
2017-10-27T14:22:22.245Z,22.70
2017-10-27T14:24:50.102Z,13.23
2017-10-27T14:27:17.731Z,8.57
2017-10-27T14:29:45.328Z,9.43
2017-10-27T14:32:12.958Z,12.67
2017-10-27T14:34:40.718Z,14.00
2017-10-27T14:37:08.888Z,12.77
2017-10-27T14:39:37.311Z,15.40
2017-10-27T14:42:04.890Z,15.13
2017-10-27T14:44:32.407Z,23.27
2017-10-27T14:47:00.001Z,29.27
2017-10-27T14:49:27.545Z,24.03
2017-10-27T14:51:55.094Z,28.17
2017-10-27T14:54:22.675Z,33.63
2017-10-27T14:56:50.290Z,42.47
2017-10-27T14:59:17.863Z,36.00
2017-10-27T15:01:45.480Z,40.93
2017-10-27T15:04:13.136Z,26.53
2017-10-27T15:06:40.949Z,27.40
2017-10-27T15:09:08.580Z,34.23
2017-10-27T15:11:36.118Z,29.20
2017-10-27T15:14:03.721Z,32.10
2017-10-27T15:16:33.258Z,24.40
2017-10-27T15:19:00.854Z,29.00
2017-10-27T15:21:28.419Z,22.50
2017-10-27T15:23:56.545Z,22.63
2017-10-27T15:26:24.145Z,22.73
2017-10-27T15:28:51.999Z,29.70
2017-10-27T15:31:19.600Z,48.67
2017-10-27T15:33:47.374Z,46.67
2017-10-27T15:36:15.003Z,51.17
2017-10-27T15:38:42.571Z,29.37
2017-10-27T15:41:10.475Z,23.83
2017-10-27T15:43:38.026Z,15.90
2017-10-27T15:46:05.927Z,27.43
2017-10-27T15:48:33.489Z,50.73
2017-10-27T15:51:01.247Z,24.20
2017-10-27T15:53:28.889Z,17.17
2017-10-27T15:55:56.430Z,17.00
2017-10-27T15:58:23.970Z,43.67
2017-10-27T16:00:51.544Z,50.37
2017-10-27T16:03:19.070Z,31.30
2017-10-27T16:05:46.594Z,25.70
2017-10-27T16:08:14.171Z,31.13
2017-10-27T16:10:41.702Z,32.10
2017-10-27T16:13:09.401Z,34.20
2017-10-27T16:15:36.989Z,29.93
2017-10-27T16:18:04.564Z,34.50
2017-10-27T16:20:32.142Z,25.60
2017-10-27T16:23:00.341Z,26.10
2017-10-27T16:25:27.968Z,28.53
2017-10-27T16:27:56.452Z,43.80
2017-10-27T16:30:24.034Z,23.77
2017-10-27T16:32:51.578Z,37.93
2017-10-27T16:35:19.688Z,22.20
2017-10-27T16:37:47.390Z,30.77
2017-10-27T16:40:15.222Z,35.60
2017-10-27T16:42:49.867Z,38.50
2017-10-27T16:45:17.627Z,30.10
2017-10-27T16:47:45.376Z,28.33
2017-10-27T16:50:13.038Z,32.47
2017-10-27T16:52:40.775Z,37.20
2017-10-27T16:55:08.329Z,43.87
2017-10-27T16:57:36.008Z,44.67
2017-10-27T17:00:07.055Z,39.80
2017-10-27T17:02:34.667Z,128.90
2017-10-27T17:05:02.271Z,68.73
2017-10-27T17:07:29.847Z,62.10
2017-10-27T17:09:57.651Z,63.70
2017-10-27T17:12:25.214Z,74.20
2017-10-27T17:14:52.858Z,65.50
2017-10-27T17:17:20.386Z,58.83
2017-10-27T17:19:47.997Z,56.93
2017-10-27T17:22:15.577Z,54.87
2017-10-27T17:24:43.420Z,55.67
2017-10-27T17:27:10.996Z,57.00
2017-10-27T17:29:38.598Z,60.07
2017-10-27T17:32:06.178Z,59.93
2017-10-27T17:34:33.760Z,54.67
2017-10-27T17:37:01.341Z,43.00
2017-10-27T17:39:29.020Z,60.77
2017-10-27T17:41:56.609Z,45.20
2017-10-27T17:44:24.223Z,57.23
2017-10-27T17:46:51.818Z,46.73
2017-10-27T17:49:19.379Z,54.63
2017-10-27T17:51:46.922Z,39.17
2017-10-27T17:54:14.518Z,58.90
2017-10-27T17:56:42.137Z,50.50
2017-10-27T17:59:09.759Z,58.37
2017-10-27T18:01:37.396Z,59.40
2017-10-27T18:04:04.963Z,63.40
2017-10-27T18:06:32.495Z,63.57
2017-10-27T18:09:00.992Z,61.13
2017-10-27T18:11:28.528Z,62.53
2017-10-27T18:13:56.106Z,74.80
2017-10-27T18:16:23.808Z,86.43
2017-10-27T18:18:51.493Z,85.40
2017-10-27T18:21:19.278Z,72.10
2017-10-27T18:23:46.852Z,74.80
2017-10-27T18:26:14.422Z,75.67
2017-10-27T18:28:41.997Z,80.33
2017-10-27T18:31:09.610Z,80.00
2017-10-27T18:33:37.138Z,73.67
2017-10-27T18:36:04.725Z,76.50
2017-10-27T18:38:32.346Z,73.73
2017-10-27T18:40:59.953Z,67.83
2017-10-27T18:43:27.550Z,70.03
2017-10-27T18:45:55.143Z,78.87
2017-10-27T18:48:22.772Z,63.43
2017-10-27T18:50:50.355Z,72.93
2017-10-27T18:53:18.021Z,53.83
2017-10-27T18:55:45.597Z,61.17
2017-10-27T18:58:13.110Z,55.43
2017-10-27T19:00:40.746Z,65.30
2017-10-27T19:03:08.354Z,49.67
2017-10-27T19:05:35.978Z,41.67
2017-10-27T19:08:03.578Z,63.20
2017-10-27T19:10:31.090Z,45.77
2017-10-27T19:12:58.601Z,42.00
2017-10-27T19:15:26.181Z,48.10
2017-10-27T19:17:53.714Z,52.63
2017-10-27T19:20:21.287Z,59.40
2017-10-27T19:22:52.199Z,50.77
2017-10-27T19:25:20.069Z,51.03
2017-10-27T19:27:47.602Z,57.47
2017-10-27T19:30:15.385Z,60.40
2017-10-27T19:32:42.904Z,45.37
2017-10-27T19:35:10.472Z,52.60
2017-10-27T19:37:38.077Z,51.37
2017-10-27T19:40:05.850Z,50.20
2017-10-27T19:42:33.382Z,61.57
2017-10-27T19:45:00.957Z,71.13
2017-10-27T19:47:28.736Z,55.83
2017-10-27T19:49:56.302Z,47.17
2017-10-27T19:52:24.573Z,49.17
2017-10-27T19:54:52.165Z,43.30
2017-10-27T19:57:20.034Z,50.87
2017-10-27T19:59:47.691Z,51.10
2017-10-27T20:02:15.318Z,42.40
2017-10-27T20:04:42.876Z,48.63
2017-10-27T20:07:10.477Z,58.70
2017-10-27T20:09:38.137Z,54.80
2017-10-27T20:12:06.178Z,44.63
2017-10-27T20:14:33.745Z,54.60
2017-10-27T20:17:01.323Z,45.30
2017-10-27T20:19:28.879Z,43.87
2017-10-27T20:21:56.493Z,48.13
2017-10-27T20:24:24.205Z,49.20
2017-10-27T20:26:51.808Z,43.37
2017-10-27T20:29:19.343Z,49.20
2017-10-27T20:31:46.955Z,44.27
2017-10-27T20:34:14.495Z,53.63
2017-10-27T20:36:42.075Z,40.03
2017-10-27T20:39:09.657Z,45.83
2017-10-27T20:41:37.298Z,42.93
2017-10-27T20:44:04.935Z,47.37
2017-10-27T20:46:32.537Z,40.13
2017-10-27T20:49:00.080Z,35.17
2017-10-27T20:51:27.625Z,39.63
2017-10-27T20:53:55.214Z,42.17
2017-10-27T20:56:23.651Z,39.67
2017-10-27T20:58:51.185Z,52.10
2017-10-27T21:01:18.821Z,48.40
2017-10-27T21:03:46.406Z,40.60
2017-10-27T21:06:14.233Z,41.00
2017-10-27T21:08:41.865Z,46.80
2017-10-27T21:11:09.446Z,37.23
2017-10-27T21:13:37.326Z,42.43
2017-10-27T21:16:04.980Z,46.47
2017-10-27T21:18:32.955Z,49.30
2017-10-27T21:21:00.493Z,44.77
2017-10-27T21:23:28.055Z,58.33
2017-10-27T21:25:56.451Z,47.37
2017-10-27T21:28:24.034Z,49.73
2017-10-27T21:30:51.633Z,38.30
2017-10-27T21:33:19.178Z,43.13
2017-10-27T21:35:46.740Z,48.00
2017-10-27T21:38:14.314Z,64.07
2017-10-27T21:40:41.848Z,70.17
2017-10-27T21:43:09.400Z,49.97
2017-10-27T21:45:37.194Z,32.30
2017-10-27T21:48:04.755Z,30.50
2017-10-27T21:50:32.314Z,26.53
2017-10-27T21:52:59.934Z,25.57
2017-10-27T21:55:27.478Z,23.70
2017-10-27T21:57:55.036Z,27.83
2017-10-27T22:00:22.730Z,17.07
2017-10-27T22:02:50.253Z,14.03
2017-10-27T22:05:17.844Z,26.90
2017-10-27T22:07:45.452Z,14.50
2017-10-27T22:10:12.986Z,19.40
2017-10-27T22:12:40.527Z,13.43
2017-10-27T22:15:08.112Z,15.33
2017-10-27T22:17:35.621Z,15.33
2017-10-27T22:20:03.147Z,14.33
2017-10-27T22:22:30.734Z,13.27
2017-10-27T22:24:58.277Z,13.47
2017-10-27T22:27:25.798Z,13.83
2017-10-27T22:29:53.408Z,13.30
2017-10-27T22:32:21.041Z,15.23
2017-10-27T22:34:48.830Z,20.47
2017-10-27T22:37:16.387Z,18.13
2017-10-27T22:39:43.962Z,16.87
2017-10-27T22:42:11.788Z,17.30
2017-10-27T22:44:39.315Z,18.33
2017-10-27T22:47:06.887Z,19.83
2017-10-27T22:49:34.412Z,24.80
2017-10-27T22:52:03.471Z,22.10
2017-10-27T22:54:31.161Z,23.83
2017-10-27T22:56:58.726Z,14.80
2017-10-27T22:59:27.054Z,12.13
2017-10-27T23:01:54.764Z,13.33
2017-10-27T23:04:22.286Z,5.43
2017-10-27T23:06:49.814Z,6.27
2017-10-27T23:09:17.438Z,4.37
2017-10-27T23:11:45.189Z,5.00
2017-10-27T23:14:12.787Z,13.60
2017-10-27T23:16:41.254Z,3.10
2017-10-27T23:19:08.992Z,3.87
2017-10-27T23:21:36.736Z,3.33
2017-10-27T23:24:04.353Z,1.93
2017-10-27T23:26:31.868Z,3.07
2017-10-27T23:28:59.704Z,1.70
2017-10-27T23:31:27.317Z,5.23
2017-10-27T23:33:54.901Z,1.70
2017-10-27T23:36:22.442Z,4.60
2017-10-27T23:38:50.115Z,3.60
2017-10-27T23:41:17.740Z,1.80
2017-10-27T23:43:45.318Z,2.30
2017-10-27T23:46:12.909Z,3.83
2017-10-27T23:48:40.472Z,1.50
2017-10-27T23:51:08.661Z,2.30
2017-10-27T23:53:36.281Z,3.10
2017-10-27T23:56:04.125Z,1.40
2017-10-27T23:58:31.690Z,1.50
